Time;durP1;ratioP1;P1;durP2;ratioP2;P2;SDS_P1;SDS_P2;PMS_P1;PMS_P2;Temp;Humidity;BMP_temperature;BMP_pressure;BME280_temperature;BME280_humidity;BME280_pressure;Samples;Min_cycle;Max_cycle;Signal;HPM_P1;HPM_P2
2021/11/03 00:01:57;;;;;;;33.80;15.25;;;;;;;6.47;52.69;99997.81;4982897;28;20434;-70
2021/11/03 00:04:22;;;;;;;28.20;15.82;;;;;;;6.44;52.79;99998.78;5002222;28;20038;-70
2021/11/03 00:06:48;;;;;;;26.73;16.02;;;;;;;6.43;53.08;99999.66;5004755;28;20033;-69
2021/11/03 00:09:14;;;;;;;26.73;16.05;;;;;;;6.40;52.82;99996.34;5006308;28;21027;-69
2021/11/03 00:11:40;;;;;;;36.20;15.85;;;;;;;6.28;53.14;100003.69;4988109;28;20121;-69
2021/11/03 00:14:05;;;;;;;31.20;16.23;;;;;;;6.28;53.35;100001.09;5005240;28;20052;-66
2021/11/03 00:16:32;;;;;;;27.00;15.88;;;;;;;6.26;53.28;100001.97;5004251;28;20040;-67
2021/11/03 00:21:32;;;;;;;28.65;16.50;;;;;;;6.31;53.33;100004.44;5004073;28;20139;-66
2021/11/03 00:23:58;;;;;;;32.40;15.98;;;;;;;6.25;53.65;100001.16;5008130;28;20490;-66
2021/11/03 00:26:23;;;;;;;25.65;14.65;;;;;;;6.27;53.44;100009.72;5007970;28;20026;-66
2021/11/03 00:28:49;;;;;;;26.30;15.82;;;;;;;6.27;53.58;100004.53;5008299;28;20064;-64
2021/11/03 00:31:14;;;;;;;31.35;17.27;;;;;;;6.23;53.26;100002.09;5007659;28;20045;-65
2021/11/03 00:33:40;;;;;;;26.23;15.73;;;;;;;6.26;53.60;100012.38;5007659;28;20399;-64
2021/11/03 00:36:05;;;;;;;28.02;15.85;;;;;;;6.27;53.62;100008.88;5007741;28;20403;-65
2021/11/03 00:38:31;;;;;;;30.75;15.00;;;;;;;6.31;53.57;100005.31;5007387;28;20073;-65
2021/11/03 00:40:57;;;;;;;30.90;16.60;;;;;;;6.40;53.32;99998.94;5007796;28;20077;-67
2021/11/03 00:43:24;;;;;;;30.40;16.08;;;;;;;6.40;53.33;99998.94;4992846;28;20034;-67
2021/11/03 00:45:50;;;;;;;32.13;16.85;;;;;;;6.40;53.25;100007.56;5006766;28;20044;-66
2021/11/03 00:48:16;;;;;;;29.88;15.52;;;;;;;6.40;53.62;100004.13;4976873;28;20046;-67
2021/11/03 00:50:43;;;;;;;29.45;15.90;;;;;;;6.38;53.83;100001.59;4987830;28;20037;-67
2021/11/03 00:53:09;;;;;;;32.88;16.15;;;;;;;6.39;53.54;99992.88;4969397;28;20038;-67
2021/11/03 00:55:35;;;;;;;29.23;16.10;;;;;;;6.43;53.39;99989.28;4971279;28;20492;-68
2021/11/03 00:58:00;;;;;;;29.25;17.15;;;;;;;6.46;53.41;99999.56;4986956;28;20503;-67
2021/11/03 01:00:26;;;;;;;31.77;17.25;;;;;;;6.49;53.72;99999.44;4989217;28;20290;-67
2021/11/03 01:02:52;;;;;;;26.33;14.45;;;;;;;6.56;53.44;99994.03;5002454;28;20041;-68
2021/11/03 01:05:22;;;;;;;32.60;16.95;;;;;;;6.58;53.21;99993.06;5003343;28;20379;-68
2021/11/03 01:07:48;;;;;;;27.95;15.93;;;;;;;6.53;53.47;99988.94;4986479;28;20132;-68
2021/11/03 01:10:18;;;;;;;27.35;16.35;;;;;;;6.48;53.36;99994.31;4989081;28;20634;-67
2021/11/03 01:12:44;;;;;;;28.42;15.27;;;;;;;6.53;53.15;99996.72;4987721;28;20038;-67
2021/11/03 01:15:14;;;;;;;26.25;15.00;;;;;;;6.50;53.12;99985.53;4971194;28;20480;-68
2021/11/03 01:17:40;;;;;;;28.25;16.48;;;;;;;6.50;53.33;99995.94;4986408;28;20045;-67
2021/11/03 01:20:08;;;;;;;24.75;14.48;;;;;;;6.48;53.44;99991.69;5003524;28;20033;-67
2021/11/03 01:22:35;;;;;;;29.30;14.73;;;;;;;6.49;53.21;99994.25;4952672;28;20047;-67
2021/11/03 01:25:00;;;;;;;29.67;16.50;;;;;;;6.57;53.45;99991.34;4986879;28;20076;-67
2021/11/03 01:27:26;;;;;;;29.92;17.05;;;;;;;6.65;53.04;99991.94;4987242;28;20042;-67
2021/11/03 01:29:51;;;;;;;23.63;14.32;;;;;;;6.72;53.09;99991.69;4987747;28;20015;-68
2021/11/03 01:32:17;;;;;;;30.88;16.00;;;;;;;6.72;53.04;99989.09;4988997;28;20040;-68
2021/11/03 01:34:43;;;;;;;29.50;15.85;;;;;;;6.72;53.25;99989.94;4954121;28;20046;-67
2021/11/03 01:37:09;;;;;;;33.88;16.30;;;;;;;6.74;52.97;99982.94;4961044;28;20034;-67
2021/11/03 01:39:35;;;;;;;26.25;13.82;;;;;;;6.84;52.82;99984.28;5002318;28;20372;-67
2021/11/03 01:42:00;;;;;;;28.50;14.55;;;;;;;6.90;52.89;99986.63;4969636;28;20488;-68
2021/11/03 01:44:26;;;;;;;26.85;15.98;;;;;;;6.84;52.87;99988.63;4969385;28;20483;-68
2021/11/03 01:46:54;;;;;;;27.73;15.48;;;;;;;6.80;53.11;99987.06;4972718;28;20460;-68
2021/11/03 01:49:28;;;;;;;29.95;14.93;;;;;;;6.82;52.94;99985.22;4989482;28;20528;-67
2021/11/03 01:52:09;;;;;;;24.52;14.65;;;;;;;6.85;53.20;99991.16;4959766;28;20043;-68
2021/11/03 01:54:44;;;;;;;27.77;16.35;;;;;;;6.78;53.08;99991.47;4974861;28;20037;-67
2021/11/03 01:57:17;;;;;;;32.47;16.42;;;;;;;6.75;53.14;99991.56;4972626;28;20042;-68
2021/11/03 01:59:46;;;;;;;30.02;15.88;;;;;;;6.79;52.82;99983.59;4960704;28;20030;-65
2021/11/03 02:02:15;;;;;;;31.13;17.58;;;;;;;6.81;53.05;99989.59;4985415;28;20050;-65
2021/11/03 02:04:41;;;;;;;28.98;15.57;;;;;;;6.82;53.11;99983.50;4968928;28;20034;-64
2021/11/03 02:07:13;;;;;;;32.85;17.05;;;;;;;6.82;53.14;99990.44;4968683;28;20398;-64
2021/11/03 02:09:38;;;;;;;31.60;15.02;;;;;;;6.87;52.59;99981.56;4965312;28;20114;-65
2021/11/03 02:12:04;;;;;;;29.92;16.85;;;;;;;6.89;52.87;99982.34;4986788;28;20419;-65
2021/11/03 02:14:31;;;;;;;28.77;15.18;;;;;;;6.94;52.79;99983.94;4968583;28;20041;-65
2021/11/03 02:16:57;;;;;;;29.15;15.82;;;;;;;6.87;52.99;99978.97;5001343;28;20034;-65
2021/11/03 02:19:28;;;;;;;30.08;15.77;;;;;;;6.90;52.72;99988.38;4956083;28;20040;-65
2021/11/03 02:22:20;;;;;;;27.63;15.02;;;;;;;6.87;52.81;99983.31;5000358;28;20237;-66
2021/11/03 02:25:03;;;;;;;31.40;17.13;;;;;;;6.86;52.69;99982.50;4984223;28;20061;-65
2021/11/03 02:27:33;;;;;;;26.70;14.63;;;;;;;6.88;52.75;99980.66;4985405;28;20030;-67
2021/11/03 02:29:58;;;;;;;28.60;16.38;;;;;;;6.90;52.70;99984.03;4977560;28;20121;-65
2021/11/03 02:32:29;;;;;;;26.38;14.55;;;;;;;6.91;53.07;99985.75;4968674;28;20038;-65
2021/11/03 02:34:55;;;;;;;30.40;16.77;;;;;;;6.96;53.15;99975.16;4985558;28;20034;-65
2021/11/03 02:37:27;;;;;;;38.70;16.58;;;;;;;6.97;52.70;99971.66;5000364;28;20050;-65
2021/11/03 02:39:59;;;;;;;31.13;17.25;;;;;;;6.95;52.57;99970.88;4984645;28;20045;-65
2021/11/03 02:42:28;;;;;;;30.63;16.70;;;;;;;6.90;52.95;99975.41;5000935;28;20034;-65
2021/11/03 02:44:58;;;;;;;28.70;15.77;;;;;;;6.85;53.11;99967.78;5000552;28;20062;-66
2021/11/03 02:47:24;;;;;;;31.38;16.48;;;;;;;6.82;53.02;99973.13;5000336;28;20450;-65
2021/11/03 02:49:49;;;;;;;30.70;15.27;;;;;;;6.82;52.87;99970.53;4970234;28;20041;-65
2021/11/03 02:52:23;;;;;;;40.85;17.52;;;;;;;6.75;53.06;99973.41;5001153;28;20038;-65
2021/11/03 02:54:49;;;;;;;29.83;15.43;;;;;;;6.75;53.07;99971.63;4984515;28;20495;-65
2021/11/03 02:57:16;;;;;;;26.25;14.93;;;;;;;6.80;53.04;99981.88;4976494;28;20113;-65
2021/11/03 02:59:43;;;;;;;30.30;15.95;;;;;;;6.83;53.00;99977.38;4985451;28;20044;-65
2021/11/03 03:02:09;;;;;;;29.35;15.63;;;;;;;6.87;52.87;99978.97;5000315;28;20042;-65
2021/11/03 03:04:40;;;;;;;28.65;16.27;;;;;;;6.82;52.67;99973.13;4983793;28;20033;-65
2021/11/03 03:07:08;;;;;;;28.92;15.32;;;;;;;6.77;52.90;99977.63;4985368;28;20050;-65
2021/11/03 03:09:34;;;;;;;30.60;16.35;;;;;;;6.79;52.94;99970.63;4999279;28;20934;-66
2021/11/03 03:12:03;;;;;;;29.33;14.57;;;;;;;6.76;53.11;99975.94;4984954;28;20530;-65
2021/11/03 03:14:33;;;;;;;;;;;;;;;6.72;52.86;99974.38;4985788;28;20038;-66
2021/11/03 03:17:00;;;;;;;31.27;16.08;;;;;;;6.79;52.99;99980.16;4982787;28;20488;-66
2021/11/03 03:19:26;;;;;;;28.08;14.73;;;;;;;6.80;53.24;99987.06;4984055;28;20039;-66
2021/11/03 03:21:52;;;;;;;30.70;15.40;;;;;;;6.86;53.05;99984.22;4975053;28;20100;-68
2021/11/03 03:24:18;;;;;;;33.25;15.55;;;;;;;6.89;52.88;99987.56;4968225;28;20523;-68
2021/11/03 03:26:46;;;;;;;30.02;14.75;;;;;;;6.91;53.24;99992.69;4973548;28;20044;-67
2021/11/03 03:29:12;;;;;;;28.10;14.80;;;;;;;6.94;53.06;99994.31;4986341;28;20559;-66
2021/11/03 03:31:38;;;;;;;31.65;16.63;;;;;;;6.86;53.21;99992.00;4985021;28;20053;-66
2021/11/03 03:34:13;;;;;;;28.70;15.00;;;;;;;6.90;52.95;99998.78;4967170;28;20042;-66
2021/11/03 03:36:40;;;;;;;28.05;15.05;;;;;;;6.88;53.26;99991.03;5001257;28;20030;-66
2021/11/03 03:39:08;;;;;;;29.38;16.10;;;;;;;6.91;53.39;99997.91;4999105;28;20046;-67
2021/11/03 03:41:36;;;;;;;32.28;16.00;;;;;;;6.91;53.11;99993.53;4967398;28;20042;-68
2021/11/03 03:44:02;;;;;;;33.88;16.45;;;;;;;6.85;53.19;99991.16;4967662;28;20035;-69
2021/11/03 03:46:27;;;;;;;30.40;15.23;;;;;;;6.85;53.29;100001.56;4970455;28;20508;-66
2021/11/03 03:48:54;;;;;;;28.45;15.48;;;;;;;6.84;53.43;100001.59;5000256;28;20038;-66
2021/11/03 03:51:21;;;;;;;29.75;15.90;;;;;;;6.84;53.57;99999.88;4999932;28;20033;-66
2021/11/03 03:53:48;;;;;;;33.70;16.48;;;;;;;6.81;53.42;99994.78;4984243;28;20042;-68
2021/11/03 03:56:18;;;;;;;30.70;15.98;;;;;;;6.86;53.65;100005.88;4974936;28;20118;-68
2021/11/03 03:58:45;;;;;;;30.35;14.77;;;;;;;6.86;53.35;100003.28;4984146;28;20038;-68
2021/11/03 04:01:14;;;;;;;29.85;16.02;;;;;;;6.83;53.60;100000.78;4973865;28;20033;-68
2021/11/03 04:03:42;;;;;;;32.63;16.88;;;;;;;6.87;53.76;100002.34;4999580;28;20412;-68
2021/11/03 04:06:07;;;;;;;28.58;14.65;;;;;;;6.86;53.57;99998.06;4966724;28;20038;-68
2021/11/03 04:08:33;;;;;;;30.50;15.60;;;;;;;6.94;53.55;100002.13;4970546;28;20050;-66
2021/11/03 04:10:59;;;;;;;34.40;15.70;;;;;;;6.91;53.70;100001.31;4983190;28;20491;-67
2021/11/03 04:13:27;;;;;;;34.22;17.20;;;;;;;6.95;53.54;100003.78;4978912;28;20062;-66
2021/11/03 04:15:54;;;;;;;34.78;14.98;;;;;;;6.93;53.32;100003.00;4985120;28;20030;-67
2021/11/03 04:18:20;;;;;;;31.00;16.55;;;;;;;6.90;53.38;99999.63;4983015;28;20053;-67
2021/11/03 04:20:46;;;;;;;33.10;16.17;;;;;;;6.97;53.55;99994.19;4983972;28;20041;-66
2021/11/03 04:23:13;;;;;;;30.58;16.25;;;;;;;6.93;53.68;100000.41;4982694;28;20057;-67
2021/11/03 04:25:38;;;;;;;33.85;16.35;;;;;;;6.93;53.65;99993.47;4985311;28;20408;-66
2021/11/03 04:28:04;;;;;;;31.55;15.63;;;;;;;6.91;53.82;99996.13;4983222;28;20046;-67
2021/11/03 04:30:31;;;;;;;30.50;14.68;;;;;;;6.93;53.88;100001.25;4968871;28;20037;-67
2021/11/03 04:32:58;;;;;;;29.75;15.85;;;;;;;6.97;53.78;100000.22;4965665;28;20038;-65
2021/11/03 04:35:24;;;;;;;31.65;16.73;;;;;;;7.02;53.80;99997.44;4983130;28;20065;-65
2021/11/03 04:37:50;;;;;;;30.38;15.48;;;;;;;7.01;53.77;100000.97;4982329;28;20304;-65
2021/11/03 04:40:18;;;;;;;32.45;17.35;;;;;;;7.04;53.68;100006.03;4959499;28;20663;-66
2021/11/03 04:42:46;;;;;;;31.60;15.38;;;;;;;7.02;53.75;99998.31;4974041;28;20257;-65
2021/11/03 04:45:12;;;;;;;32.55;15.98;;;;;;;7.08;53.55;100003.25;5004430;28;20096;-65
2021/11/03 04:47:39;;;;;;;31.77;16.60;;;;;;;7.21;53.62;100006.22;4984359;28;20045;-66
2021/11/03 04:50:07;;;;;;;33.30;16.75;;;;;;;7.19;53.59;100005.44;5004444;28;20048;-66
2021/11/03 04:52:33;;;;;;;36.92;17.40;;;;;;;7.10;53.48;100009.25;5000596;28;20042;-65
2021/11/03 04:54:58;;;;;;;30.15;15.75;;;;;;;7.08;53.53;100010.22;4973845;28;20038;-65
2021/11/03 04:57:24;;;;;;;32.75;17.27;;;;;;;7.01;53.77;100003.56;4968069;28;20035;-66
2021/11/03 04:59:49;;;;;;;29.65;15.85;;;;;;;6.97;54.13;100009.78;4986799;28;20045;-65
2021/11/03 05:02:16;;;;;;;34.90;15.90;;;;;;;6.98;53.61;100001.94;4970390;28;20136;-65
2021/11/03 05:04:42;;;;;;;28.20;15.18;;;;;;;7.06;53.62;100001.63;4970313;28;20178;-65
2021/11/03 05:07:11;;;;;;;34.17;17.27;;;;;;;7.01;53.47;100007.00;4986643;28;20047;-65
2021/11/03 05:09:38;;;;;;;29.88;16.38;;;;;;;6.98;53.95;100006.28;4969559;28;20043;-66
2021/11/03 05:12:04;;;;;;;29.35;14.13;;;;;;;7.02;53.71;100008.72;4969257;28;20113;-65
2021/11/03 05:14:32;;;;;;;34.25;16.00;;;;;;;7.04;53.75;100016.44;4987174;28;20030;-66
2021/11/03 05:16:58;;;;;;;29.40;15.02;;;;;;;7.12;53.95;100004.00;4968008;28;20033;-66
2021/11/03 05:19:29;;;;;;;31.98;13.93;;;;;;;7.16;53.88;100004.72;4970322;28;20046;-66
2021/11/03 05:22:04;;;;;;;30.63;15.95;;;;;;;7.14;53.42;100012.56;4978681;28;20050;-65
2021/11/03 05:24:34;;;;;;;32.25;17.15;;;;;;;7.06;53.57;100017.22;4986642;28;20038;-66
2021/11/03 05:27:00;;;;;;;30.23;15.57;;;;;;;7.04;53.85;100011.22;4973447;28;20092;-66
2021/11/03 05:29:26;;;;;;;29.77;14.73;;;;;;;7.05;53.67;100012.94;4986416;28;20041;-65
2021/11/03 05:31:51;;;;;;;34.30;16.83;;;;;;;7.06;53.52;100009.41;4974034;28;20061;-67
2021/11/03 05:34:17;;;;;;;29.83;14.90;;;;;;;7.09;53.72;100019.72;4969806;28;20046;-66
2021/11/03 05:36:42;;;;;;;39.78;16.77;;;;;;;7.07;53.63;100024.13;4987756;28;20022;-66
2021/11/03 05:39:13;;;;;;;30.80;15.07;;;;;;;7.07;53.75;100027.56;4987386;28;20137;-66
2021/11/03 05:41:39;;;;;;;30.70;15.73;;;;;;;7.07;53.87;100031.91;4986450;28;20045;-65
2021/11/03 05:44:07;;;;;;;32.05;16.02;;;;;;;7.10;54.22;100036.97;5005109;28;20125;-65
2021/11/03 05:46:37;;;;;;;31.15;15.75;;;;;;;7.21;54.12;100039.16;5005728;28;20018;-66
2021/11/03 05:49:05;;;;;;;31.48;15.15;;;;;;;7.19;53.85;100031.41;5004634;28;20458;-65
2021/11/03 05:51:32;;;;;;;30.50;15.25;;;;;;;7.21;53.68;100034.81;5005846;28;20045;-64
2021/11/03 05:53:58;;;;;;;27.92;14.77;;;;;;;7.25;53.74;100040.75;5006203;28;20061;-64
2021/11/03 05:56:24;;;;;;;31.20;14.65;;;;;;;7.29;53.90;100037.97;4995093;28;20518;-65
2021/11/03 05:58:51;;;;;;;26.40;12.98;;;;;;;7.32;53.58;100037.00;5006095;28;20055;-65
2021/11/03 06:01:17;;;;;;;26.85;13.48;;;;;;;7.33;53.82;100042.13;5005873;28;20041;-66
2021/11/03 06:03:42;;;;;;;28.00;12.85;;;;;;;7.29;53.82;100042.31;4981073;28;20418;-66
2021/11/03 06:06:09;;;;;;;29.45;14.85;;;;;;;6.97;53.91;100052.19;5006595;28;20379;-67
2021/11/03 06:08:34;;;;;;;24.30;11.25;;;;;;;6.94;54.33;100052.31;5005122;28;20030;-67
2021/11/03 06:11:01;;;;;;;20.52;10.82;;;;;;;6.46;55.70;100056.69;5006142;28;20533;-68
2021/11/03 06:13:27;;;;;;;20.17;10.07;;;;;;;6.64;55.03;100064.69;5006349;28;20042;-68
2021/11/03 06:15:52;;;;;;;18.35;9.95;;;;;;;6.74;54.63;100068.66;5007540;28;20049;-68
2021/11/03 06:18:18;;;;;;;19.60;8.63;;;;;;;6.69;54.37;100075.78;5005334;28;20046;-68
2021/11/03 06:20:43;;;;;;;14.13;8.27;;;;;;;6.83;54.18;100075.25;5005972;28;20038;-68
2021/11/03 06:23:09;;;;;;;20.00;8.50;;;;;;;6.36;55.21;100070.88;5005528;28;20076;-67
2021/11/03 06:25:35;;;;;;;12.38;6.60;;;;;;;6.93;53.88;100083.53;5007127;28;20049;-67
2021/11/03 06:28:01;;;;;;;13.10;7.22;;;;;;;6.69;54.15;100086.16;5005137;28;20038;-67
2021/11/03 06:30:32;;;;;;;12.60;6.72;;;;;;;6.64;54.15;100088.03;5008457;28;20403;-68
2021/11/03 06:32:58;;;;;;;12.68;7.45;;;;;;;6.86;53.77;100086.38;5005889;28;20049;-68
2021/11/03 06:35:24;;;;;;;11.27;6.63;;;;;;;6.85;54.16;100084.69;5006420;28;20030;-66
2021/11/03 06:37:50;;;;;;;11.75;6.25;;;;;;;7.06;53.20;100077.81;5004379;28;20034;-68
2021/11/03 06:40:18;;;;;;;11.50;6.22;;;;;;;7.07;53.51;100079.53;4989353;28;20036;-65
2021/11/03 06:42:44;;;;;;;16.33;7.25;;;;;;;7.07;53.36;100089.91;4979126;28;20061;-65
2021/11/03 06:45:12;;;;;;;15.60;7.60;;;;;;;6.57;54.13;100099.56;5005597;28;20044;-66
2021/11/03 06:47:38;;;;;;;14.88;7.38;;;;;;;6.96;53.60;100099.03;4986457;28;20443;-67
2021/11/03 06:50:06;;;;;;;13.95;6.78;;;;;;;6.87;53.95;100097.63;5005923;28;20069;-66
2021/11/03 06:52:33;;;;;;;14.38;6.60;;;;;;;7.02;53.62;100101.38;5003862;28;20030;-67
2021/11/03 06:54:59;;;;;;;13.18;6.30;;;;;;;6.98;53.34;100103.25;5005377;28;20030;-69
2021/11/03 06:57:24;;;;;;;18.20;7.80;;;;;;;7.01;53.43;100110.09;5004559;28;20539;-67
2021/11/03 06:59:51;;;;;;;11.73;6.55;;;;;;;7.12;53.21;100107.94;4993658;28;20045;-68
2021/11/03 07:02:17;;;;;;;14.57;6.45;;;;;;;7.17;52.88;100115.56;4981621;28;20050;-68
2021/11/03 07:04:43;;;;;;;10.23;6.10;;;;;;;7.19;53.12;100114.59;5004346;28;20034;-69
2021/11/03 07:07:09;;;;;;;13.00;6.97;;;;;;;7.18;53.08;100118.09;5005167;28;20045;-67
2021/11/03 07:09:35;;;;;;;14.23;6.15;;;;;;;7.27;52.44;100117.75;5005877;28;21022;-67
2021/11/03 07:12:00;;;;;;;14.93;7.53;;;;;;;7.24;52.49;100124.81;4978262;28;20115;-68
2021/11/03 07:14:26;;;;;;;12.88;6.78;;;;;;;7.16;52.91;100122.50;5005033;28;20937;-68
2021/11/03 07:16:52;;;;;;;11.23;6.25;;;;;;;7.31;52.62;100129.72;5004793;28;20519;-70
2021/11/03 07:19:18;;;;;;;12.68;6.00;;;;;;;7.32;52.47;100128.81;4987557;28;20065;-69
2021/11/03 07:21:44;;;;;;;11.95;6.10;;;;;;;6.98;53.04;100125.81;5004871;28;20030;-65
2021/11/03 07:24:12;;;;;;;15.25;6.70;;;;;;;7.18;52.98;100125.91;5005145;28;20395;-66
2021/11/03 07:26:39;;;;;;;13.77;6.47;;;;;;;7.09;53.10;100128.84;4993796;28;20049;-66
2021/11/03 07:29:05;;;;;;;12.63;6.60;;;;;;;7.29;52.86;100128.09;5003339;28;20042;-65
2021/11/03 07:31:30;;;;;;;12.45;6.25;;;;;;;7.29;52.44;100128.94;5003111;28;20029;-65
2021/11/03 07:33:55;;;;;;;12.52;6.72;;;;;;;7.20;52.73;100131.91;4986740;28;20626;-66
2021/11/03 07:36:21;;;;;;;11.32;6.95;;;;;;;7.30;52.64;100127.19;5003357;28;20518;-65
2021/11/03 07:38:48;;;;;;;13.10;6.47;;;;;;;7.41;51.98;100135.41;5003484;28;20510;-66
2021/11/03 07:41:14;;;;;;;12.13;6.25;;;;;;;6.43;54.15;100134.66;5004285;28;20038;-65
2021/11/03 07:43:42;;;;;;;11.00;5.68;;;;;;;7.07;53.13;100135.84;5005786;28;20096;-65
2021/11/03 07:46:10;;;;;;;11.90;6.13;;;;;;;7.22;52.34;100124.88;5005672;28;20406;-65
2021/11/03 07:48:35;;;;;;;14.13;7.22;;;;;;;7.39;52.22;100133.78;5008090;28;20065;-64
2021/11/03 07:51:05;;;;;;;11.85;5.68;;;;;;;7.49;52.22;100132.53;5004093;28;20542;-66
2021/11/03 07:53:31;;;;;;;9.77;5.43;;;;;;;7.46;51.95;100135.25;5003836;28;20042;-66
2021/11/03 07:56:00;;;;;;;13.57;5.95;;;;;;;7.28;51.91;100135.03;5003483;28;20065;-68
2021/11/03 07:58:30;;;;;;;11.48;5.93;;;;;;;7.46;52.18;100146.47;5002184;28;20041;-65
2021/11/03 08:00:57;;;;;;;11.68;6.47;;;;;;;7.30;52.34;100142.78;4986965;28;20022;-66
2021/11/03 08:03:24;;;;;;;10.60;5.38;;;;;;;7.49;51.77;100143.78;5003952;28;20125;-65
2021/11/03 08:05:51;;;;;;;12.23;5.47;;;;;;;7.60;51.71;100140.78;5005458;28;20040;-65
2021/11/03 08:08:18;;;;;;;9.35;5.80;;;;;;;7.66;51.35;100145.72;5007497;28;20041;-66
2021/11/03 08:10:45;;;;;;;15.02;6.15;;;;;;;7.77;51.35;100141.88;4999723;28;20515;-65
2021/11/03 08:13:16;;;;;;;12.68;6.07;;;;;;;7.69;50.93;100140.44;5017192;28;20115;-65
2021/11/03 08:15:45;;;;;;;12.77;6.18;;;;;;;7.74;51.27;100138.47;5018311;28;20026;-66
2021/11/03 08:18:12;;;;;;;7.00;4.82;;;;;;;7.84;51.24;100148.53;4997928;28;20092;-65
2021/11/03 08:20:41;;;;;;;10.88;5.32;;;;;;;7.73;51.20;100144.59;5017620;28;20049;-66
2021/11/03 08:23:07;;;;;;;11.25;5.55;;;;;;;7.74;50.99;100138.47;5016631;28;20506;-64
2021/11/03 08:25:33;;;;;;;9.20;5.55;;;;;;;7.33;51.51;100143.53;5018944;28;20042;-65
2021/11/03 08:27:58;;;;;;;8.57;5.07;;;;;;;7.62;51.05;100141.56;5023058;28;20038;-64
2021/11/03 08:30:24;;;;;;;8.25;4.95;;;;;;;7.65;50.91;100151.84;5021033;28;20045;-65
2021/11/03 08:32:56;;;;;;;11.05;6.25;;;;;;;7.80;50.75;100147.81;5004625;28;20044;-65
2021/11/03 08:35:25;;;;;;;9.70;5.63;;;;;;;7.42;51.32;100146.66;5019613;28;20041;-65
2021/11/03 08:37:52;;;;;;;8.68;5.97;;;;;;;7.57;51.48;100146.09;5017583;28;20042;-64
2021/11/03 08:40:22;;;;;;;10.23;5.18;;;;;;;7.71;51.05;100149.03;5019695;28;20088;-65
2021/11/03 08:42:48;;;;;;;12.38;6.25;;;;;;;7.44;50.89;100147.44;5010939;28;20102;-65
2021/11/03 08:45:17;;;;;;;10.35;6.30;;;;;;;7.90;50.89;100148.28;5009304;28;20042;-65
2021/11/03 08:47:43;;;;;;;10.73;5.68;;;;;;;8.04;49.92;100145.94;4990674;28;20042;-65
2021/11/03 08:50:14;;;;;;;12.10;7.05;;;;;;;8.15;49.94;100148.94;5016286;28;20092;-65
2021/11/03 08:52:40;;;;;;;11.30;7.03;;;;;;;8.01;49.87;100150.44;5006398;28;20046;-65
2021/11/03 08:55:06;;;;;;;11.50;5.57;;;;;;;7.92;49.47;100154.28;5007781;28;20030;-64
2021/11/03 08:57:34;;;;;;;9.98;6.43;;;;;;;7.98;49.70;100156.63;5006476;28;20115;-65
2021/11/03 09:00:02;;;;;;;12.43;7.82;;;;;;;7.95;49.67;100154.97;5008163;28;20026;-65
2021/11/03 09:02:28;;;;;;;12.15;7.15;;;;;;;8.16;50.19;100155.03;5007320;28;20716;-65
2021/11/03 09:04:54;;;;;;;12.05;7.30;;;;;;;8.06;50.35;100154.53;4992819;28;20029;-64
2021/11/03 09:07:20;;;;;;;10.20;6.65;;;;;;;8.50;49.68;100149.25;5006296;28;20061;-65
2021/11/03 09:09:46;;;;;;;12.38;7.43;;;;;;;8.58;48.99;100146.28;5006846;28;20463;-65
2021/11/03 09:12:12;;;;;;;13.05;7.75;;;;;;;8.78;48.58;100140.25;5006430;28;20045;-64
2021/11/03 09:14:39;;;;;;;9.20;6.55;;;;;;;9.28;46.65;100142.34;5007272;28;20041;-65
2021/11/03 09:17:05;;;;;;;12.18;6.65;;;;;;;9.00;47.06;100147.13;5005816;28;20596;-65
2021/11/03 09:19:30;;;;;;;11.40;6.22;;;;;;;9.17;47.33;100147.19;5007862;28;20326;-64
2021/11/03 09:21:56;;;;;;;11.82;7.07;;;;;;;9.18;46.50;100141.06;4991261;28;20378;-65
2021/11/03 09:24:21;;;;;;;11.18;7.18;;;;;;;9.65;45.53;100145.81;5005791;28;20461;-65
2021/11/03 09:26:47;;;;;;;9.80;6.32;;;;;;;9.74;45.98;100142.75;4986275;28;20038;-65
2021/11/03 09:29:12;;;;;;;12.93;6.88;;;;;;;9.79;45.42;100138.22;4988285;28;20089;-65
2021/11/03 09:31:40;;;;;;;11.52;6.82;;;;;;;9.85;44.37;100146.66;5003129;28;20052;-66
2021/11/03 09:34:07;;;;;;;11.32;6.78;;;;;;;10.18;44.86;100145.00;5003320;28;20375;-64
2021/11/03 09:36:33;;;;;;;14.18;8.20;;;;;;;10.63;43.65;100140.13;5004760;28;20438;-65
2021/11/03 09:38:59;;;;;;;14.18;7.10;;;;;;;10.43;43.48;100141.13;4997486;28;20045;-65
2021/11/03 09:41:34;;;;;;;12.57;6.82;;;;;;;10.69;42.31;100144.19;4999311;28;20092;-65
2021/11/03 09:44:01;;;;;;;12.70;7.90;;;;;;;10.32;43.51;100146.06;4997651;28;20042;-65
2021/11/03 09:46:39;;;;;;;8.98;7.13;;;;;;;10.26;43.75;100151.59;4998374;28;20036;-65
2021/11/03 09:49:18;;;;;;;12.40;7.97;;;;;;;9.76;44.74;100159.19;4997781;28;20129;-65
2021/11/03 09:51:47;;;;;;;11.43;7.18;;;;;;;9.73;45.70;100161.97;4989311;28;20041;-65
2021/11/03 09:54:21;;;;;;;12.27;7.28;;;;;;;9.76;45.66;100158.34;4999398;28;20026;-66
2021/11/03 09:56:53;;;;;;;13.95;7.93;;;;;;;9.69;45.90;100165.63;4997275;28;20026;-64
2021/11/03 10:00:03;;;;;;;14.95;7.82;;;;;;;10.21;45.53;100162.28;4998355;28;20453;-65
2021/11/03 10:03:09;;;;;;;13.52;7.50;;;;;;;10.28;45.29;100161.06;4998264;28;20176;-65
2021/11/03 10:05:49;;;;;;;11.55;7.97;;;;;;;10.09;44.15;100162.91;4998472;28;20056;-65
2021/11/03 10:08:18;;;;;;;14.73;7.25;;;;;;;10.16;44.18;100162.50;4997079;28;20132;-66
2021/11/03 10:11:13;;;;;;;12.75;7.70;;;;;;;10.59;43.80;100172.56;4999279;28;20033;-65
2021/11/03 10:13:39;;;;;;;16.45;9.25;;;;;;;10.72;42.40;100173.59;4942115;28;20119;-65
2021/11/03 10:16:25;;;;;;;17.00;9.07;;;;;;;10.43;43.54;100175.09;4996803;28;20033;-65
2021/11/03 10:18:54;;;;;;;13.02;8.13;;;;;;;10.40;43.68;100173.50;4977774;28;20088;-65
2021/11/03 10:21:43;;;;;;;17.60;8.50;;;;;;;10.82;44.19;100174.88;4997615;28;20366;-65
2021/11/03 10:24:11;;;;;;;18.58;9.20;;;;;;;10.44;43.44;100168.97;4969268;28;20061;-65
2021/11/03 10:26:58;;;;;;;15.18;8.25;;;;;;;10.92;43.20;100177.00;4997177;28;20120;-65
2021/11/03 10:29:42;;;;;;;13.35;8.88;;;;;;;11.41;41.61;100169.13;4997866;28;20442;-68
2021/11/03 10:32:07;;;;;;;12.85;7.95;;;;;;;10.41;43.54;100176.94;4994912;28;20053;-65
2021/11/03 10:34:33;;;;;;;14.13;8.00;;;;;;;11.09;41.84;100174.34;4995676;28;20042;-65
2021/11/03 10:37:11;;;;;;;11.18;7.20;;;;;;;11.70;42.03;100174.53;4995559;28;20040;-65
2021/11/03 10:39:53;;;;;;;13.10;7.07;;;;;;;12.04;41.90;100176.13;4978589;28;20513;-65
2021/11/03 10:42:49;;;;;;;11.30;7.53;;;;;;;11.23;41.81;100181.44;4997064;28;20046;-66
2021/11/03 10:45:17;;;;;;;14.25;8.77;;;;;;;12.01;40.56;100181.53;4996558;28;20067;-65
2021/11/03 10:47:53;;;;;;;16.77;8.63;;;;;;;11.53;41.62;100178.06;4963231;28;20042;-66
2021/11/03 10:50:29;;;;;;;10.23;6.90;;;;;;;12.40;40.21;100175.78;4993164;28;20048;-66
2021/11/03 10:52:59;;;;;;;13.65;8.13;;;;;;;12.40;39.28;100175.78;4996205;28;20060;-65
2021/11/03 10:55:25;;;;;;;10.00;7.43;;;;;;;12.75;38.90;100179.88;4995888;28;20415;-65
2021/11/03 10:58:11;;;;;;;10.50;6.90;;;;;;;12.74;38.63;100178.22;4997538;28;20050;-65
2021/11/03 11:00:53;;;;;;;11.45;7.65;;;;;;;13.02;38.00;100182.59;4996934;28;20057;-66
2021/11/03 11:03:24;;;;;;;12.35;7.75;;;;;;;11.95;39.06;100174.03;4996662;28;20519;-66
2021/11/03 11:05:56;;;;;;;11.73;7.68;;;;;;;12.19;39.47;100175.22;4995104;28;20346;-67
2021/11/03 11:08:24;;;;;;;;;;;;;;;12.60;38.50;100181.59;4996530;28;20180;-65
2021/11/03 11:11:08;;;;;;;12.45;6.82;;;;;;;12.27;39.34;100170.41;4996681;28;19925;-65
2021/11/03 11:13:44;;;;;;;17.52;8.48;;;;;;;12.19;39.95;100162.13;4995181;28;20234;-66
2021/11/03 11:16:13;;;;;;;13.38;7.90;;;;;;;11.96;39.58;100166.09;4996547;28;20084;-68
2021/11/03 11:19:37;;;;;;;13.52;8.70;;;;;;;11.75;39.86;100155.00;4997508;28;20426;-65
2021/11/03 11:22:30;;;;;;;19.17;10.82;;;;;;;11.35;40.99;100157.25;4902193;29;20591;-67
2021/11/03 11:25:04;;;;;;;14.60;8.95;;;;;;;10.78;42.36;100164.63;4907856;29;20096;-66
2021/11/03 11:27:49;;;;;;;15.85;9.45;;;;;;;11.08;41.42;100166.56;4982997;28;20078;-66
2021/11/03 11:30:18;;;;;;;15.55;10.50;;;;;;;11.74;41.08;100163.81;4981731;28;20045;-65
2021/11/03 11:32:50;;;;;;;15.93;9.77;;;;;;;11.86;39.43;100157.06;4994657;28;20073;-67